Time;durP1;ratioP1;P1;durP2;ratioP2;P2;SDS_P1;SDS_P2;PMS_P1;PMS_P2;Temp;Humidity;BMP_temperature;BMP_pressure;BME280_temperature;BME280_humidity;BME280_pressure;Samples;Min_cycle;Max_cycle;Signal;HPM_P1;HPM_P2
2023/04/10 09:44:43;;;;;;;88.53;52.40;;;;;;;17.68;61.26;101448.09;5118309;27;20200;-49
2023/04/10 09:47:20;;;;;;;91.25;52.42;;;;;;;18.46;58.64;101451.59;5103534;28;20040;-53
2023/04/10 09:49:51;;;;;;;85.68;50.83;;;;;;;19.01;56.71;101447.91;5109760;28;20043;-43
2023/04/10 09:52:38;;;;;;;92.45;51.70;;;;;;;19.38;55.28;101436.38;5104466;28;20036;-54
2023/04/10 09:55:07;;;;;;;77.57;47.33;;;;;;;19.66;54.46;101440.06;5103289;28;20436;-43
2023/04/10 09:57:35;;;;;;;89.85;54.15;;;;;;;19.72;54.37;101432.50;5109582;28;20032;-43
2023/04/10 10:00:05;;;;;;;93.35;55.70;;;;;;;19.82;53.94;101428.53;5109523;28;20456;-46
2023/04/10 10:02:38;;;;;;;84.82;53.65;;;;;;;19.88;53.84;101431.38;5109364;28;20101;-43
2023/04/10 10:05:06;;;;;;;100.72;59.30;;;;;;;20.05;53.39;101433.72;5104698;28;20438;-43
2023/04/10 10:07:34;;;;;;;92.93;53.45;;;;;;;20.01;53.39;101432.72;5109606;28;20134;-45
2023/04/10 10:10:03;;;;;;;79.63;49.90;;;;;;;20.04;53.59;101435.47;5108208;28;20055;-43
2023/04/10 10:12:34;;;;;;;84.70;52.45;;;;;;;19.95;53.93;101436.81;5107965;28;20059;-43
2023/04/10 10:15:07;;;;;;;83.72;51.30;;;;;;;19.84;54.20;101442.50;5104092;28;20215;-54
2023/04/10 10:17:57;;;;;;;83.10;47.83;;;;;;;19.77;54.30;101424.84;5105540;28;20024;-51
2023/04/10 10:20:26;;;;;;;86.68;51.40;;;;;;;19.69;54.73;101429.78;5100805;28;20055;-51
2023/04/10 10:22:54;;;;;;;78.63;47.42;;;;;;;19.86;54.33;101424.31;5106782;28;20028;-43
2023/04/10 10:25:24;;;;;;;78.72;48.17;;;;;;;19.79;54.54;101431.00;5104368;28;20081;-53
2023/04/10 10:27:52;;;;;;;79.45;49.83;;;;;;;19.80;54.52;101437.09;5108607;28;20035;-55
2023/04/10 10:30:20;;;;;;;76.15;46.20;;;;;;;19.72;54.71;101444.59;5108324;28;20031;-45
2023/04/10 10:32:50;;;;;;;76.13;47.08;;;;;;;19.84;54.28;101446.81;5108086;28;20036;-54
2023/04/10 10:35:18;;;;;;;79.78;47.10;;;;;;;19.74;54.50;101442.97;5105885;28;20020;-44
2023/04/10 10:37:46;;;;;;;80.03;48.70;;;;;;;19.76;54.58;101441.31;5106910;28;20027;-50
2023/04/10 10:40:22;;;;;;;78.68;45.67;;;;;;;19.78;54.24;101444.84;5108697;28;20024;-45
2023/04/10 10:43:10;;;;;;;77.97;46.97;;;;;;;19.64;54.87;101449.53;5107957;28;20048;-54
2023/04/10 10:45:59;;;;;;;78.32;47.00;;;;;;;19.71;54.48;101453.25;5100477;28;20485;-51
2023/04/10 10:48:27;;;;;;;83.95;50.95;;;;;;;19.82;54.20;101451.97;5097101;28;20496;-47
2023/04/10 10:50:57;;;;;;;75.07;46.45;;;;;;;19.86;54.07;101464.25;5108043;28;20068;-45
2023/04/10 10:53:44;;;;;;;83.80;50.35;;;;;;;19.86;54.32;101464.25;5105340;28;20024;-53
2023/04/10 10:56:25;;;;;;;95.05;53.45;;;;;;;19.85;54.19;101464.19;5091972;28;20042;-52
2023/04/10 10:58:56;;;;;;;83.88;51.63;;;;;;;19.88;54.08;101452.22;5094300;28;20028;-47
2023/04/10 11:01:24;;;;;;;96.93;57.35;;;;;;;19.81;54.32;101450.19;5094378;28;20036;-44
2023/04/10 11:03:51;;;;;;;87.07;52.05;;;;;;;19.91;54.02;101424.50;5092937;28;20020;-50
2023/04/10 11:06:21;;;;;;;96.10;59.30;;;;;;;19.83;54.36;101435.53;5092027;28;20492;-47
2023/04/10 11:08:52;;;;;;;91.20;55.33;;;;;;;19.92;54.26;101423.69;5094038;28;20028;-52
2023/04/10 11:11:24;;;;;;;100.43;55.78;;;;;;;19.92;54.25;101418.47;5094086;28;20024;-54
2023/04/10 11:13:51;;;;;;;89.93;51.47;;;;;;;19.85;54.61;101418.25;5091560;28;20020;-54
2023/04/10 11:16:20;;;;;;;90.13;54.67;;;;;;;19.82;54.46;101406.81;5093428;28;20036;-44
2023/04/10 11:18:48;;;;;;;103.13;64.07;;;;;;;19.96;54.31;101413.44;5092458;28;20393;-53
2023/04/10 11:21:25;;;;;;;114.90;76.65;;;;;;;20.15;53.41;101415.03;5093951;28;20020;-54
2023/04/10 11:24:01;;;;;;;122.85;75.47;;;;;;;20.36;53.06;101416.59;5092338;28;20073;-43
2023/04/10 11:26:40;;;;;;;111.72;74.50;;;;;;;20.52;52.31;101409.34;5092850;28;20066;-53
2023/04/10 11:29:27;;;;;;;133.48;88.30;;;;;;;20.80;51.84;101416.38;5090804;28;20427;-53
2023/04/10 11:31:57;;;;;;;137.77;89.35;;;;;;;20.88;51.44;101422.75;5092433;28;20070;-53
2023/04/10 11:34:34;;;;;;;138.00;92.93;;;;;;;21.00;50.90;101422.28;5090400;28;20028;-55
2023/04/10 11:37:03;;;;;;;151.82;99.85;;;;;;;21.10;50.45;101436.47;5093046;28;20111;-53
2023/04/10 11:39:31;;;;;;;142.63;96.68;;;;;;;21.19;50.42;101435.91;5094010;28;20020;-55
2023/04/10 11:41:58;;;;;;;154.02;100.82;;;;;;;21.27;50.25;101426.59;5092271;28;20032;-49
2023/04/10 11:44:27;;;;;;;160.93;106.85;;;;;;;21.32;50.22;101431.97;5092151;28;20051;-54
2023/04/10 11:46:54;;;;;;;171.15;117.38;;;;;;;21.36;50.20;101437.31;5089014;28;20149;-55
2023/04/10 11:49:25;;;;;;;182.70;118.47;;;;;;;21.40;49.91;101439.19;5093332;28;20031;-56
2023/04/10 11:51:53;;;;;;;167.70;113.30;;;;;;;21.51;50.00;101446.50;5092028;28;20375;-53
2023/04/10 11:54:23;;;;;;;178.95;114.85;;;;;;;21.57;49.63;101446.66;5090968;28;20070;-55
2023/04/10 11:57:11;;;;;;;180.45;118.43;;;;;;;21.64;49.52;101456.50;5092645;28;20028;-55
2023/04/10 11:59:40;;;;;;;180.13;121.70;;;;;;;21.68;49.39;101453.13;5091181;28;20036;-51
2023/04/10 12:02:10;;;;;;;177.82;122.85;;;;;;;21.77;49.53;101447.28;5092835;28;20028;-49
2023/04/10 12:04:38;;;;;;;196.75;134.35;;;;;;;21.76;49.50;101447.25;5090640;28;20032;-54
2023/04/10 12:07:07;;;;;;;184.73;124.97;;;;;;;21.78;49.27;101456.91;5090662;28;20028;-53
2023/04/10 12:09:36;;;;;;;202.32;138.23;;;;;;;21.82;49.30;101461.38;5093218;28;20519;-56
2023/04/10 12:12:05;;;;;;;196.18;133.15;;;;;;;21.88;49.06;101460.69;5092587;28;20392;-49
2023/04/10 12:14:37;;;;;;;194.15;132.63;;;;;;;21.92;49.43;101467.78;5092371;28;20020;-53
2023/04/10 12:17:07;;;;;;;208.23;138.43;;;;;;;21.90;49.54;101463.34;5091574;28;20465;-54
2023/04/10 12:19:36;;;;;;;202.40;138.23;;;;;;;21.94;49.52;101463.47;5092638;28;20028;-53
2023/04/10 12:22:04;;;;;;;210.30;143.15;;;;;;;21.98;49.18;101473.19;5090001;28;20389;-55
2023/04/10 12:24:44;;;;;;;207.98;140.10;;;;;;;22.04;49.03;101463.75;5092237;28;20039;-44
2023/04/10 12:27:17;;;;;;;218.98;142.90;;;;;;;22.14;49.02;101458.81;5091329;28;20499;-54
2023/04/10 12:29:48;;;;;;;211.93;142.63;;;;;;;22.16;49.09;101464.13;5093347;28;20039;-55
2023/04/10 12:32:16;;;;;;;217.48;146.88;;;;;;;22.19;48.98;101463.31;5093202;28;20024;-54
2023/04/10 12:35:00;;;;;;;211.63;142.05;;;;;;;22.24;49.16;101457.34;5093230;28;20024;-56
2023/04/10 12:37:47;;;;;;;225.68;153.57;;;;;;;22.22;48.88;101450.34;5093688;28;20031;-54
2023/04/10 12:40:16;;;;;;;228.70;151.52;;;;;;;22.23;49.04;101463.44;5091310;28;20397;-55
2023/04/10 12:42:44;;;;;;;217.70;146.65;;;;;;;22.31;49.13;101454.09;5093042;28;20447;-54
2023/04/10 12:45:13;;;;;;;200.55;141.38;;;;;;;22.37;48.71;101458.59;5089398;28;20374;-53
2023/04/10 12:47:47;;;;;;;210.07;138.20;;;;;;;22.40;48.87;101449.94;5092975;28;20028;-54
2023/04/10 12:50:17;;;;;;;215.98;151.82;;;;;;;22.39;48.81;101446.47;5092526;28;20038;-48
2023/04/10 12:52:48;;;;;;;217.25;148.10;;;;;;;22.45;48.77;101451.88;5092953;28;20056;-48
2023/04/10 12:55:17;;;;;;;223.40;151.15;;;;;;;22.50;48.65;101452.00;5089781;28;20070;-55
2023/04/10 12:57:46;;;;;;;206.80;143.38;;;;;;;22.53;48.69;101451.19;5092564;28;20029;-55
2023/04/10 13:00:16;;;;;;;210.38;143.43;;;;;;;22.55;48.35;101462.59;5092560;28;20538;-53
2023/04/10 13:02:45;;;;;;;229.15;150.90;;;;;;;22.61;48.31;101458.41;5091197;28;20548;-54
2023/04/10 13:05:12;;;;;;;201.48;135.02;;;;;;;22.66;48.53;101447.19;5091962;28;20455;-55
2023/04/10 13:07:41;;;;;;;232.32;154.23;;;;;;;22.68;48.58;101442.84;5092633;28;20032;-52
2023/04/10 13:10:09;;;;;;;213.55;143.25;;;;;;;22.76;48.15;101444.81;5092681;28;20081;-49
2023/04/10 13:12:39;;;;;;;218.25;145.93;;;;;;;22.78;48.27;101442.28;5092849;28;20111;-54
2023/04/10 13:15:07;;;;;;;221.75;148.27;;;;;;;22.80;47.88;101430.13;5092479;28;20024;-54
2023/04/10 13:17:35;;;;;;;207.13;138.77;;;;;;;22.84;47.88;101439.78;5090729;28;20028;-53
2023/04/10 13:20:04;;;;;;;219.63;147.10;;;;;;;22.79;47.79;101446.66;5086534;28;20035;-52
2023/04/10 13:22:32;;;;;;;217.20;147.18;;;;;;;22.88;47.65;101449.50;5092573;28;20066;-55
2023/04/10 13:25:00;;;;;;;206.05;139.73;;;;;;;22.86;47.75;101440.72;5090509;28;20063;-48
2023/04/10 13:27:28;;;;;;;211.70;141.10;;;;;;;22.89;47.88;101455.63;5092551;28;20024;-54
2023/04/10 13:29:55;;;;;;;207.02;135.93;;;;;;;22.92;47.24;101459.19;5092279;28;20028;-50
2023/04/10 13:32:24;;;;;;;190.73;125.13;;;;;;;22.96;47.35;101467.13;5092478;28;20059;-52
2023/04/10 13:34:53;;;;;;;214.30;138.13;;;;;;;22.95;47.54;101460.13;5092469;28;20781;-53
2023/04/10 13:37:22;;;;;;;200.30;138.45;;;;;;;22.98;47.61;101457.59;5091828;28;20031;-50
2023/04/10 13:39:50;;;;;;;206.18;135.93;;;;;;;22.96;47.46;101457.53;5091580;28;20093;-52
2023/04/10 13:42:19;;;;;;;211.48;139.48;;;;;;;22.99;46.99;101448.91;5092199;28;20380;-53
2023/04/10 13:44:46;;;;;;;197.95;131.38;;;;;;;23.01;47.09;101457.63;5092251;28;20028;-53
2023/04/10 13:47:14;;;;;;;204.05;133.20;;;;;;;23.02;47.07;101454.19;5089409;28;20433;-54
2023/04/10 13:49:43;;;;;;;213.18;139.30;;;;;;;23.03;47.08;101464.69;5092464;28;20024;-52
2023/04/10 13:52:12;;;;;;;208.25;136.90;;;;;;;23.03;46.98;101458.56;5092241;28;20541;-52
2023/04/10 13:54:39;;;;;;;212.48;136.65;;;;;;;23.05;47.07;101451.66;5091998;28;20406;-49
2023/04/10 13:57:07;;;;;;;192.82;127.30;;;;;;;23.00;46.82;101443.69;5089053;28;20040;-51
2023/04/10 13:59:35;;;;;;;186.07;121.38;;;;;;;23.07;46.37;101439.47;5091911;28;20097;-50
2023/04/10 14:02:02;;;;;;;174.00;115.55;;;;;;;23.09;46.68;101461.34;5091521;28;20460;-53
2023/04/10 14:04:31;;;;;;;167.15;109.15;;;;;;;23.09;46.32;101455.22;5092186;28;20024;-53
2023/04/10 14:07:00;;;;;;;168.20;110.28;;;;;;;23.05;46.59;101462.09;5089207;28;20393;-50
2023/04/10 14:09:29;;;;;;;166.63;109.57;;;;;;;23.09;46.43;101473.53;5092245;28;20126;-50
2023/04/10 14:11:57;;;;;;;152.55;97.90;;;;;;;23.13;46.45;101484.13;5092153;28;20047;-53
2023/04/10 14:14:24;;;;;;;158.52;104.22;;;;;;;23.12;46.44;101478.84;5092008;28;20036;-52
2023/04/10 14:16:51;;;;;;;161.48;102.75;;;;;;;23.12;46.65;101484.97;5089074;28;20108;-49
2023/04/10 14:19:20;;;;;;;186.77;120.90;;;;;;;23.15;46.71;101476.31;5091831;28;20393;-44
2023/04/10 14:21:48;;;;;;;168.52;111.18;;;;;;;23.19;46.64;101467.69;5091979;28;20021;-53
2023/04/10 14:24:15;;;;;;;184.85;120.10;;;;;;;23.20;47.05;101472.09;5090532;28;20449;-53
2023/04/10 14:26:42;;;;;;;205.82;134.88;;;;;;;23.20;47.15;101470.38;5084368;28;20055;-50
2023/04/10 14:29:10;;;;;;;206.73;136.80;;;;;;;23.26;46.99;101471.38;5091881;28;20020;-52
2023/04/10 14:31:37;;;;;;;215.73;141.82;;;;;;;23.27;47.28;101467.91;5095870;28;20461;-48
2023/04/10 14:34:04;;;;;;;213.35;143.75;;;;;;;23.25;47.33;101473.09;5094310;28;20043;-52
2023/04/10 14:36:32;;;;;;;231.70;149.55;;;;;;;23.28;47.35;101467.06;5092015;28;20496;-48
2023/04/10 14:38:59;;;;;;;214.65;144.07;;;;;;;23.31;47.28;101469.75;5095038;28;20043;-44
2023/04/10 14:41:28;;;;;;;220.30;145.55;;;;;;;23.33;47.29;101468.06;5091426;28;20028;-47
2023/04/10 14:43:56;;;;;;;235.07;154.48;;;;;;;23.36;46.97;101481.22;5093297;28;20117;-50
2023/04/10 14:46:24;;;;;;;227.43;150.77;;;;;;;23.39;46.80;101489.13;5091139;28;20023;-48
2023/04/10 14:48:52;;;;;;;247.60;163.50;;;;;;;23.29;47.35;101490.66;5095233;28;20028;-48
2023/04/10 14:51:20;;;;;;;233.68;162.30;;;;;;;23.37;47.26;101490.84;5095541;28;20024;-43
2023/04/10 14:53:49;;;;;;;244.88;164.45;;;;;;;23.33;46.94;101489.00;5095616;28;20106;-53
2023/04/10 14:56:17;;;;;;;223.73;146.60;;;;;;;23.39;46.98;101493.50;5095372;28;20100;-50
2023/04/10 14:58:46;;;;;;;244.40;160.38;;;;;;;23.34;47.00;101482.91;5095386;28;20078;-53
2023/04/10 15:01:14;;;;;;;240.40;158.35;;;;;;;23.38;46.88;101479.50;5094852;28;20024;-53
2023/04/10 15:03:46;;;;;;;243.77;166.85;;;;;;;23.40;46.88;101484.81;5091959;28;20478;-54
2023/04/10 15:06:13;;;;;;;237.02;154.55;;;;;;;23.40;46.86;101476.94;5094282;28;20024;-51
2023/04/10 15:08:41;;;;;;;216.20;144.55;;;;;;;23.41;46.91;101479.59;5095096;28;20097;-47
2023/04/10 15:11:08;;;;;;;200.07;129.73;;;;;;;23.50;46.51;101468.44;5094142;28;20466;-48
2023/04/10 15:13:37;;;;;;;216.82;142.27;;;;;;;23.52;46.61;101453.66;5093868;28;20047;-50
2023/04/10 15:16:06;;;;;;;195.82;131.38;;;;;;;23.50;46.43;101471.94;5093031;28;20028;-54
2023/04/10 15:18:35;;;;;;;213.45;134.57;;;;;;;23.51;46.33;101484.19;5088075;28;20030;-51
2023/04/10 15:21:04;;;;;;;203.52;131.13;;;;;;;23.48;46.39;101480.63;5094432;28;20028;-45
2023/04/10 15:23:32;;;;;;;230.43;150.95;;;;;;;23.48;46.64;101494.63;5094776;28;20431;-50
2023/04/10 15:25:59;;;;;;;198.55;129.55;;;;;;;23.47;46.63;101507.66;5092645;28;20496;-51
2023/04/10 15:28:28;;;;;;;194.73;132.73;;;;;;;23.46;46.61;101495.41;5094571;28;20034;-44
2023/04/10 15:30:56;;;;;;;203.25;126.47;;;;;;;23.54;46.05;101500.81;5094827;28;20022;-49
2023/04/10 15:33:24;;;;;;;198.27;129.35;;;;;;;23.44;46.32;101507.56;5094303;28;20543;-44
2023/04/10 15:35:51;;;;;;;183.75;121.80;;;;;;;23.49;46.39;101500.72;5090735;28;20363;-44
2023/04/10 15:38:19;;;;;;;187.38;124.43;;;;;;;23.52;45.89;101500.78;5094684;28;20538;-52
2023/04/10 15:40:47;;;;;;;186.27;120.30;;;;;;;23.49;46.17;101495.47;5094444;28;20465;-53
2023/04/10 15:43:15;;;;;;;186.23;116.78;;;;;;;23.50;46.18;101492.88;5093861;28;20052;-45
2023/04/10 15:45:43;;;;;;;241.20;156.02;;;;;;;23.47;46.38;101503.31;5091539;28;20035;-49
2023/04/10 15:48:12;;;;;;;179.73;119.63;;;;;;;23.50;46.07;101505.97;5094220;28;20094;-47
2023/04/10 15:50:41;;;;;;;182.50;117.10;;;;;;;23.51;45.53;101502.50;5093867;28;20024;-48
2023/04/10 15:53:10;;;;;;;186.27;114.15;;;;;;;23.52;45.42;101504.28;5094494;28;20028;-48
2023/04/10 15:55:42;;;;;;;145.77;91.85;;;;;;;23.54;45.28;101491.25;5091036;28;20031;-54
2023/04/10 15:58:09;;;;;;;136.75;77.85;;;;;;;23.60;44.52;101503.59;5085859;28;20393;-50
2023/04/10 16:00:37;;;;;;;127.63;78.60;;;;;;;23.59;44.50;101493.97;5074787;28;20096;-48
2023/04/10 16:03:05;;;;;;;138.00;83.03;;;;;;;23.59;44.56;101486.97;5087805;28;20121;-52
2023/04/10 16:05:33;;;;;;;132.77;85.80;;;;;;;23.65;44.52;101481.88;5092592;28;20535;-51
2023/04/10 16:08:02;;;;;;;144.30;93.22;;;;;;;23.62;44.78;101473.94;5093925;28;20117;-54
2023/04/10 16:10:31;;;;;;;143.93;92.07;;;;;;;23.69;44.80;101479.34;5094088;28;20124;-50
2023/04/10 16:13:03;;;;;;;177.63;111.15;;;;;;;23.69;44.59;101466.25;5093583;28;20028;-51
2023/04/10 16:15:34;;;;;;;162.93;107.05;;;;;;;23.72;44.96;101484.66;5091775;28;20020;-51
2023/04/10 16:18:02;;;;;;;176.02;113.85;;;;;;;23.69;45.12;101485.44;5093638;28;20027;-53
2023/04/10 16:20:31;;;;;;;178.63;115.07;;;;;;;23.70;44.94;101465.41;5093854;28;20020;-53
2023/04/10 16:22:59;;;;;;;169.25;106.40;;;;;;;23.71;44.41;101467.16;5093621;28;20036;-53
2023/04/10 16:25:28;;;;;;;182.98;115.22;;;;;;;23.70;44.90;101471.50;5090780;28;20028;-52
2023/04/10 16:28:00;;;;;;;179.48;112.00;;;;;;;23.69;44.83;101471.50;5090327;28;20032;-55
2023/04/10 16:30:29;;;;;;;187.43;120.10;;;;;;;23.71;44.71;101472.41;5089101;28;20024;-55
2023/04/10 16:32:56;;;;;;;167.00;107.95;;;;;;;23.70;44.47;101484.59;5093730;28;20028;-52
2023/04/10 16:35:24;;;;;;;179.73;113.43;;;;;;;23.70;44.59;101474.13;5089328;28;20032;-54
2023/04/10 16:37:52;;;;;;;186.85;119.22;;;;;;;23.70;44.41;101465.41;5089151;28;20052;-54
2023/04/10 16:40:19;;;;;;;186.20;118.88;;;;;;;23.69;44.41;101466.25;5093456;28;20032;-55
2023/04/10 16:42:46;;;;;;;176.80;108.93;;;;;;;23.71;44.12;101481.13;5093499;28;20027;-52
2023/04/10 16:45:14;;;;;;;179.93;111.65;;;;;;;23.70;44.07;101474.13;5092377;28;20023;-54
2023/04/10 16:47:44;;;;;;;158.20;99.78;;;;;;;23.70;43.79;101470.63;5087364;28;20384;-51
2023/04/10 16:50:12;;;;;;;156.25;98.68;;;;;;;23.72;43.92;101461.94;5093256;28;20082;-52
2023/04/10 16:52:41;;;;;;;147.70;94.15;;;;;;;23.70;43.84;101458.41;5088362;28;20074;-50
2023/04/10 16:55:08;;;;;;;155.57;101.82;;;;;;;23.76;43.42;101465.50;5093175;28;20056;-50
2023/04/10 16:57:37;;;;;;;152.02;94.88;;;;;;;23.68;43.42;101460.09;5089656;28;20374;-55
2023/04/10 17:00:05;;;;;;;146.40;92.20;;;;;;;23.70;43.40;101458.41;5092321;28;20060;-49
2023/04/10 17:02:33;;;;;;;148.50;96.05;;;;;;;23.73;43.42;101471.59;5092172;28;20082;-53
2023/04/10 17:05:01;;;;;;;156.27;98.03;;;;;;;23.67;43.44;101468.81;5093149;28;20103;-53
2023/04/10 17:07:28;;;;;;;157.82;99.93;;;;;;;23.69;43.56;101469.75;5093638;28;20461;-55
2023/04/10 17:09:55;;;;;;;138.10;88.30;;;;;;;23.66;43.74;101485.41;5093334;28;20081;-51
2023/04/10 17:12:23;;;;;;;152.25;97.18;;;;;;;23.69;43.82;101488.06;5092929;28;20394;-53
2023/04/10 17:14:51;;;;;;;148.77;96.32;;;;;;;23.68;43.80;101491.53;5093051;28;20050;-45
2023/04/10 17:17:19;;;;;;;152.55;97.22;;;;;;;23.70;43.44;101489.84;5093123;28;20031;-44
2023/04/10 17:19:47;;;;;;;145.13;91.70;;;;;;;23.70;43.60;101479.38;5093822;28;20024;-53
2023/04/10 17:22:15;;;;;;;151.77;96.32;;;;;;;23.69;43.42;101477.59;5093292;28;20385;-46
2023/04/10 17:24:43;;;;;;;156.02;101.80;;;;;;;23.69;43.51;101482.84;5092991;28;20082;-49
2023/04/10 17:27:13;;;;;;;148.98;98.28;;;;;;;23.67;43.94;101474.94;5092493;28;20031;-44
2023/04/10 17:29:41;;;;;;;157.20;97.78;;;;;;;23.67;43.21;101476.66;5092692;28;20560;-45
2023/04/10 17:32:10;;;;;;;155.80;99.03;;;;;;;23.67;43.63;101484.53;5092965;28;20028;-45
2023/04/10 17:34:37;;;;;;;152.50;99.35;;;;;;;23.68;43.61;101491.53;5091650;28;20393;-51
2023/04/10 17:37:05;;;;;;;146.00;98.82;;;;;;;23.71;43.23;101498.59;5093137;28;20121;-45
2023/04/10 17:39:33;;;;;;;146.10;98.03;;;;;;;23.70;43.53;101487.22;5092644;28;20028;-45
2023/04/10 17:42:01;;;;;;;161.90;103.70;;;;;;;23.67;43.53;101510.72;5092875;28;20033;-51
2023/04/10 17:44:30;;;;;;;151.38;100.68;;;;;;;23.64;43.32;101498.44;5092650;28;20047;-44
2023/04/10 17:46:57;;;;;;;151.80;100.10;;;;;;;23.65;43.78;101489.75;5092922;28;20042;-50
2023/04/10 17:49:25;;;;;;;158.15;101.00;;;;;;;23.66;43.75;101502.00;5092660;28;20024;-51
2023/04/10 17:51:53;;;;;;;153.60;98.95;;;;;;;23.69;43.55;101498.56;5093042;28;20028;-45
2023/04/10 17:54:21;;;;;;;154.30;97.47;;;;;;;23.67;43.82;101501.16;5092552;28;20106;-53
2023/04/10 17:56:51;;;;;;;144.45;97.28;;;;;;;23.63;43.75;101501.91;5092641;28;20043;-52
2023/04/10 17:59:19;;;;;;;149.98;97.70;;;;;;;23.67;43.58;101487.16;5092688;28;20040;-44
2023/04/10 18:01:47;;;;;;;140.13;94.10;;;;;;;23.67;43.46;101495.00;5092273;28;20097;-44
2023/04/10 18:04:16;;;;;;;135.93;90.72;;;;;;;23.66;43.35;101488.91;5092916;28;20028;-49
2023/04/10 18:06:43;;;;;;;135.18;91.47;;;;;;;23.65;43.47;101491.50;5096870;28;20427;-44
2023/04/10 18:09:12;;;;;;;147.70;96.00;;;;;;;23.67;43.66;101476.66;5097080;28;20020;-51
2023/04/10 18:11:40;;;;;;;166.20;108.18;;;;;;;23.72;43.81;101492.50;5096634;28;20444;-45
2023/04/10 18:14:09;;;;;;;185.45;117.97;;;;;;;23.70;44.35;101513.41;5096402;28;20062;-52
2023/04/10 18:16:37;;;;;;;193.27;119.70;;;;;;;23.73;44.39;101503.03;5096707;28;20032;-55
2023/04/10 18:19:05;;;;;;;190.27;121.72;;;;;;;23.70;44.14;101507.31;5096577;28;20412;-54
2023/04/10 18:21:34;;;;;;;174.35;113.43;;;;;;;23.69;44.05;101519.50;5096616;28;20077;-51
2023/04/10 18:24:03;;;;;;;183.55;117.00;;;;;;;23.73;44.11;101503.03;5096659;28;20020;-54
2023/04/10 18:26:33;;;;;;;174.15;113.72;;;;;;;23.71;44.19;101501.22;5096209;28;20107;-52
2023/04/10 18:29:02;;;;;;;174.68;110.85;;;;;;;23.74;43.85;101504.78;5096549;28;20402;-49
2023/04/10 18:31:30;;;;;;;167.73;110.88;;;;;;;23.72;43.83;101497.75;5094805;28;20082;-45
2023/04/10 18:33:58;;;;;;;171.88;108.45;;;;;;;23.70;43.56;101512.53;5096424;28;20020;-44
2023/04/10 18:36:27;;;;;;;168.82;104.25;;;;;;;23.68;43.55;101515.13;5082017;28;20111;-46
2023/04/10 18:38:54;;;;;;;148.73;99.20;;;;;;;23.68;43.66;101520.34;5075732;28;20024;-47
2023/04/10 18:41:22;;;;;;;159.95;101.95;;;;;;;23.68;43.85;101538.69;5075958;28;20028;-52
2023/04/10 18:43:50;;;;;;;145.35;93.13;;;;;;;23.70;43.38;101536.13;5075589;28;20090;-45
2023/04/10 18:46:17;;;;;;;150.07;94.03;;;;;;;23.75;43.32;101538.00;5074684;28;20024;-52
2023/04/10 18:48:49;;;;;;;135.77;88.78;;;;;;;23.70;43.32;101537.00;5075489;28;20029;-53
2023/04/10 18:51:19;;;;;;;142.63;93.82;;;;;;;23.72;43.10;101534.44;5075641;28;20033;-53
2023/04/10 18:53:47;;;;;;;137.63;90.07;;;;;;;23.71;43.03;101537.91;5075680;28;20055;-50
2023/04/10 18:56:14;;;;;;;134.63;88.15;;;;;;;23.70;43.07;101557.09;5074748;28;20029;-45
2023/04/10 18:58:43;;;;;;;139.88;91.15;;;;;;;23.69;43.20;101552.69;5075406;28;20029;-51
2023/04/10 19:01:12;;;;;;;143.15;90.47;;;;;;;23.70;43.34;101549.22;5075524;28;20401;-54
2023/04/10 19:03:40;;;;;;;143.00;88.05;;;;;;;23.67;43.14;101544.78;5075376;28;20405;-44
2023/04/10 19:06:08;;;;;;;134.80;85.45;;;;;;;23.70;43.29;101563.19;5075778;28;20028;-54
2023/04/10 19:08:36;;;;;;;123.50;80.90;;;;;;;23.72;43.19;101571.09;5075562;28;20024;-53
2023/04/10 19:11:06;;;;;;;129.38;81.50;;;;;;;23.76;43.03;101581.69;5075256;28;20039;-54
